sensor_id;sensor_type;location;lat;lon;timestamp;temperature;humidity
4209;DHT22;36320;48.860;2.380;2023-08-17T00:00:15;24.90;67.70
4209;DHT22;36320;48.860;2.380;2023-08-17T00:02:41;25.20;68.10
4209;DHT22;36320;48.860;2.380;2023-08-17T00:05:08;25.10;68.40
4209;DHT22;36320;48.860;2.380;2023-08-17T00:07:36;25.10;68.60
4209;DHT22;36320;48.860;2.380;2023-08-17T00:10:02;25.10;68.40
4209;DHT22;36320;48.860;2.380;2023-08-17T00:12:29;25.00;68.90
4209;DHT22;36320;48.860;2.380;2023-08-17T00:14:56;25.00;68.90
4209;DHT22;36320;48.860;2.380;2023-08-17T00:17:22;25.00;69.10
4209;DHT22;36320;48.860;2.380;2023-08-17T00:19:50;25.00;69.10
4209;DHT22;36320;48.860;2.380;2023-08-17T00:22:17;25.10;69.30
4209;DHT22;36320;48.860;2.380;2023-08-17T00:24:42;25.10;69.30
4209;DHT22;36320;48.860;2.380;2023-08-17T00:27:12;25.00;69.30
4209;DHT22;36320;48.860;2.380;2023-08-17T00:29:37;25.10;69.50
4209;DHT22;36320;48.860;2.380;2023-08-17T00:32:05;25.10;69.40
4209;DHT22;36320;48.860;2.380;2023-08-17T00:34:32;25.00;69.60
4209;DHT22;36320;48.860;2.380;2023-08-17T00:36:58;25.00;69.80
4209;DHT22;36320;48.860;2.380;2023-08-17T00:39:24;25.00;69.60
4209;DHT22;36320;48.860;2.380;2023-08-17T00:41:49;25.00;69.70
4209;DHT22;36320;48.860;2.380;2023-08-17T00:44:16;24.90;69.80
4209;DHT22;36320;48.860;2.380;2023-08-17T00:46:41;24.90;70.00
4209;DHT22;36320;48.860;2.380;2023-08-17T00:49:08;24.70;70.20
4209;DHT22;36320;48.860;2.380;2023-08-17T00:51:37;24.70;70.50
4209;DHT22;36320;48.860;2.380;2023-08-17T00:54:03;24.70;70.60
4209;DHT22;36320;48.860;2.380;2023-08-17T00:56:30;24.50;70.90
4209;DHT22;36320;48.860;2.380;2023-08-17T00:58:56;24.60;71.20
4209;DHT22;36320;48.860;2.380;2023-08-17T01:01:22;24.50;71.50
4209;DHT22;36320;48.860;2.380;2023-08-17T01:03:49;24.70;71.40
4209;DHT22;36320;48.860;2.380;2023-08-17T01:06:15;24.70;71.10
4209;DHT22;36320;48.860;2.380;2023-08-17T01:08:42;24.60;71.20
4209;DHT22;36320;48.860;2.380;2023-08-17T01:11:21;24.60;71.30
4209;DHT22;36320;48.860;2.380;2023-08-17T01:13:59;24.50;71.70
4209;DHT22;36320;48.860;2.380;2023-08-17T01:16:45;24.50;71.60
4209;DHT22;36320;48.860;2.380;2023-08-17T01:19:26;24.60;71.50
4209;DHT22;36320;48.860;2.380;2023-08-17T01:21:57;24.60;71.50
4209;DHT22;36320;48.860;2.380;2023-08-17T01:24:24;24.50;71.70
4209;DHT22;36320;48.860;2.380;2023-08-17T01:26:50;24.40;71.80
4209;DHT22;36320;48.860;2.380;2023-08-17T01:29:16;24.30;72.00
4209;DHT22;36320;48.860;2.380;2023-08-17T01:34:28;24.30;72.20
4209;DHT22;36320;48.860;2.380;2023-08-17T01:36:58;24.30;72.50
4209;DHT22;36320;48.860;2.380;2023-08-17T01:39:41;24.20;72.80
4209;DHT22;36320;48.860;2.380;2023-08-17T01:42:10;24.20;72.90
4209;DHT22;36320;48.860;2.380;2023-08-17T01:44:36;24.20;73.00
4209;DHT22;36320;48.860;2.380;2023-08-17T01:47:02;24.30;73.10
4209;DHT22;36320;48.860;2.380;2023-08-17T01:49:28;24.40;73.00
4209;DHT22;36320;48.860;2.380;2023-08-17T01:51:54;24.30;72.90
4209;DHT22;36320;48.860;2.380;2023-08-17T01:54:20;24.30;73.20
4209;DHT22;36320;48.860;2.380;2023-08-17T01:56:46;24.30;73.10
4209;DHT22;36320;48.860;2.380;2023-08-17T01:59:11;24.40;73.10
4209;DHT22;36320;48.860;2.380;2023-08-17T02:01:38;24.40;73.00
4209;DHT22;36320;48.860;2.380;2023-08-17T02:04:04;24.40;73.00
4209;DHT22;36320;48.860;2.380;2023-08-17T02:06:30;24.30;73.10
4209;DHT22;36320;48.860;2.380;2023-08-17T02:08:57;24.20;73.50
4209;DHT22;36320;48.860;2.380;2023-08-17T02:11:26;24.10;73.70
4209;DHT22;36320;48.860;2.380;2023-08-17T02:13:52;24.00;74.00
4209;DHT22;36320;48.860;2.380;2023-08-17T02:16:18;23.90;74.00
4209;DHT22;36320;48.860;2.380;2023-08-17T02:18:43;23.90;74.40
4209;DHT22;36320;48.860;2.380;2023-08-17T02:21:09;23.90;74.40
4209;DHT22;36320;48.860;2.380;2023-08-17T02:23:35;23.90;74.40
4209;DHT22;36320;48.860;2.380;2023-08-17T02:26:00;23.90;74.60
4209;DHT22;36320;48.860;2.380;2023-08-17T02:28:27;23.90;74.60
4209;DHT22;36320;48.860;2.380;2023-08-17T02:30:58;23.90;74.60
4209;DHT22;36320;48.860;2.380;2023-08-17T02:33:24;23.80;74.60
4209;DHT22;36320;48.860;2.380;2023-08-17T02:35:51;23.90;74.70
4209;DHT22;36320;48.860;2.380;2023-08-17T02:38:17;24.00;74.70
4209;DHT22;36320;48.860;2.380;2023-08-17T02:40:44;24.00;74.60
4209;DHT22;36320;48.860;2.380;2023-08-17T02:43:10;23.90;74.70
4209;DHT22;36320;48.860;2.380;2023-08-17T02:45:35;23.90;74.90
4209;DHT22;36320;48.860;2.380;2023-08-17T02:48:01;23.90;75.00
4209;DHT22;36320;48.860;2.380;2023-08-17T02:50:27;23.90;75.00
4209;DHT22;36320;48.860;2.380;2023-08-17T02:52:53;23.90;75.00
4209;DHT22;36320;48.860;2.380;2023-08-17T02:55:18;23.90;75.10
4209;DHT22;36320;48.860;2.380;2023-08-17T02:57:44;24.00;75.20
4209;DHT22;36320;48.860;2.380;2023-08-17T03:00:11;23.90;75.00
4209;DHT22;36320;48.860;2.380;2023-08-17T03:02:37;23.90;75.40
4209;DHT22;36320;48.860;2.380;2023-08-17T03:05:03;24.00;75.30
4209;DHT22;36320;48.860;2.380;2023-08-17T03:07:29;24.00;75.00
4209;DHT22;36320;48.860;2.380;2023-08-17T03:09:54;24.00;75.20
4209;DHT22;36320;48.860;2.380;2023-08-17T03:12:20;24.00;75.20
4209;DHT22;36320;48.860;2.380;2023-08-17T03:14:46;23.90;75.20
4209;DHT22;36320;48.860;2.380;2023-08-17T03:17:11;24.00;75.30
4209;DHT22;36320;48.860;2.380;2023-08-17T03:19:37;24.00;75.30
4209;DHT22;36320;48.860;2.380;2023-08-17T03:22:04;24.10;75.40
4209;DHT22;36320;48.860;2.380;2023-08-17T03:24:30;24.10;75.20
4209;DHT22;36320;48.860;2.380;2023-08-17T03:26:56;23.80;76.20
4209;DHT22;36320;48.860;2.380;2023-08-17T03:29:22;23.70;75.70
4209;DHT22;36320;48.860;2.380;2023-08-17T03:31:52;23.70;75.80
4209;DHT22;36320;48.860;2.380;2023-08-17T03:34:17;23.70;75.90
4209;DHT22;36320;48.860;2.380;2023-08-17T03:36:43;23.70;76.00
4209;DHT22;36320;48.860;2.380;2023-08-17T03:39:09;23.50;76.30
4209;DHT22;36320;48.860;2.380;2023-08-17T03:41:35;23.40;76.50
4209;DHT22;36320;48.860;2.380;2023-08-17T03:44:03;23.40;76.80
4209;DHT22;36320;48.860;2.380;2023-08-17T03:46:31;23.40;76.90
4209;DHT22;36320;48.860;2.380;2023-08-17T03:48:59;23.30;77.00
4209;DHT22;36320;48.860;2.380;2023-08-17T03:51:24;23.30;77.20
4209;DHT22;36320;48.860;2.380;2023-08-17T03:53:51;23.40;77.20
4209;DHT22;36320;48.860;2.380;2023-08-17T03:56:18;23.30;77.20
4209;DHT22;36320;48.860;2.380;2023-08-17T03:58:43;23.30;77.60
4209;DHT22;36320;48.860;2.380;2023-08-17T04:01:09;23.40;77.70
4209;DHT22;36320;48.860;2.380;2023-08-17T04:03:36;23.40;77.50
4209;DHT22;36320;48.860;2.380;2023-08-17T04:06:06;23.40;77.30
4209;DHT22;36320;48.860;2.380;2023-08-17T04:08:32;23.40;77.50
4209;DHT22;36320;48.860;2.380;2023-08-17T04:10:58;23.30;77.60
4209;DHT22;36320;48.860;2.380;2023-08-17T04:13:23;23.30;77.80
4209;DHT22;36320;48.860;2.380;2023-08-17T04:15:50;23.30;77.80
4209;DHT22;36320;48.860;2.380;2023-08-17T04:18:16;23.30;77.90
4209;DHT22;36320;48.860;2.380;2023-08-17T04:20:44;23.40;77.80
4209;DHT22;36320;48.860;2.380;2023-08-17T04:23:10;23.30;77.90
4209;DHT22;36320;48.860;2.380;2023-08-17T04:25:35;23.30;77.90
4209;DHT22;36320;48.860;2.380;2023-08-17T04:28:01;23.20;78.40
4209;DHT22;36320;48.860;2.380;2023-08-17T04:30:27;23.20;78.40
4209;DHT22;36320;48.860;2.380;2023-08-17T04:32:52;23.40;78.40
4209;DHT22;36320;48.860;2.380;2023-08-17T04:35:39;23.40;78.30
4209;DHT22;36320;48.860;2.380;2023-08-17T04:38:04;23.20;78.20
4209;DHT22;36320;48.860;2.380;2023-08-17T04:40:31;23.20;78.50
4209;DHT22;36320;48.860;2.380;2023-08-17T04:42:57;23.20;78.50
4209;DHT22;36320;48.860;2.380;2023-08-17T04:45:23;23.20;78.70
4209;DHT22;36320;48.860;2.380;2023-08-17T04:47:52;23.30;78.80
4209;DHT22;36320;48.860;2.380;2023-08-17T04:50:18;23.30;78.80
4209;DHT22;36320;48.860;2.380;2023-08-17T04:52:44;23.30;78.70
4209;DHT22;36320;48.860;2.380;2023-08-17T04:55:10;23.30;78.70
4209;DHT22;36320;48.860;2.380;2023-08-17T04:57:36;23.20;78.70
4209;DHT22;36320;48.860;2.380;2023-08-17T05:00:02;23.20;78.80
4209;DHT22;36320;48.860;2.380;2023-08-17T05:02:28;23.20;78.90
4209;DHT22;36320;48.860;2.380;2023-08-17T05:04:54;23.20;79.10
4209;DHT22;36320;48.860;2.380;2023-08-17T05:07:21;23.20;79.10
4209;DHT22;36320;48.860;2.380;2023-08-17T05:09:47;23.20;79.10
4209;DHT22;36320;48.860;2.380;2023-08-17T05:12:12;23.00;79.30
4209;DHT22;36320;48.860;2.380;2023-08-17T05:14:39;23.10;79.90
4209;DHT22;36320;48.860;2.380;2023-08-17T05:17:05;23.00;79.90
4209;DHT22;36320;48.860;2.380;2023-08-17T05:19:31;23.10;80.00
4209;DHT22;36320;48.860;2.380;2023-08-17T05:21:57;23.00;79.80
4209;DHT22;36320;48.860;2.380;2023-08-17T05:24:23;22.70;80.00
4209;DHT22;36320;48.860;2.380;2023-08-17T05:26:49;23.10;80.30
4209;DHT22;36320;48.860;2.380;2023-08-17T05:29:15;23.10;80.30
4209;DHT22;36320;48.860;2.380;2023-08-17T05:31:40;23.10;80.30
4209;DHT22;36320;48.860;2.380;2023-08-17T05:34:06;23.10;80.30
4209;DHT22;36320;48.860;2.380;2023-08-17T05:36:33;23.20;80.30
4209;DHT22;36320;48.860;2.380;2023-08-17T05:39:02;24.30;81.50
4209;DHT22;36320;48.860;2.380;2023-08-17T05:41:29;23.20;80.30
4209;DHT22;36320;48.860;2.380;2023-08-17T05:43:55;22.90;80.00
4209;DHT22;36320;48.860;2.380;2023-08-17T05:46:21;23.20;80.30
4209;DHT22;36320;48.860;2.380;2023-08-17T05:48:48;23.20;81.10
4209;DHT22;36320;48.860;2.380;2023-08-17T05:51:14;23.30;80.50
4209;DHT22;36320;48.860;2.380;2023-08-17T05:53:40;23.30;80.40
4209;DHT22;36320;48.860;2.380;2023-08-17T05:56:05;23.50;80.30
4209;DHT22;36320;48.860;2.380;2023-08-17T05:58:34;23.60;80.10
4209;DHT22;36320;48.860;2.380;2023-08-17T06:01:10;23.50;80.00
4209;DHT22;36320;48.860;2.380;2023-08-17T06:03:37;23.50;79.90
4209;DHT22;36320;48.860;2.380;2023-08-17T06:06:03;23.50;80.00
4209;DHT22;36320;48.860;2.380;2023-08-17T06:08:30;23.20;80.30
4209;DHT22;36320;48.860;2.380;2023-08-17T06:10:57;23.10;80.50
4209;DHT22;36320;48.860;2.380;2023-08-17T06:13:23;23.00;80.90
4209;DHT22;36320;48.860;2.380;2023-08-17T06:15:49;23.10;81.00
4209;DHT22;36320;48.860;2.380;2023-08-17T06:18:15;23.20;80.90
4209;DHT22;36320;48.860;2.380;2023-08-17T06:20:40;23.30;80.80
4209;DHT22;36320;48.860;2.380;2023-08-17T06:23:06;23.20;80.70
4209;DHT22;36320;48.860;2.380;2023-08-17T06:25:32;23.30;80.80
4209;DHT22;36320;48.860;2.380;2023-08-17T06:27:59;23.30;80.70
4209;DHT22;36320;48.860;2.380;2023-08-17T06:30:25;23.30;80.80
4209;DHT22;36320;48.860;2.380;2023-08-17T06:32:54;23.30;80.60
4209;DHT22;36320;48.860;2.380;2023-08-17T06:35:22;23.20;80.60
4209;DHT22;36320;48.860;2.380;2023-08-17T06:37:48;23.20;80.80
4209;DHT22;36320;48.860;2.380;2023-08-17T06:40:13;23.10;81.00
4209;DHT22;36320;48.860;2.380;2023-08-17T06:42:39;23.00;81.10
4209;DHT22;36320;48.860;2.380;2023-08-17T06:45:05;23.00;81.30
4209;DHT22;36320;48.860;2.380;2023-08-17T06:47:33;23.10;81.30
4209;DHT22;36320;48.860;2.380;2023-08-17T06:49:59;23.40;81.00
4209;DHT22;36320;48.860;2.380;2023-08-17T06:52:25;23.60;80.80
4209;DHT22;36320;48.860;2.380;2023-08-17T06:54:50;23.70;80.40
4209;DHT22;36320;48.860;2.380;2023-08-17T06:57:17;23.60;80.40
4209;DHT22;36320;48.860;2.380;2023-08-17T06:59:44;23.80;80.30
4209;DHT22;36320;48.860;2.380;2023-08-17T07:02:11;23.70;80.20
4209;DHT22;36320;48.860;2.380;2023-08-17T07:04:37;23.70;80.50
4209;DHT22;36320;48.860;2.380;2023-08-17T07:07:03;23.90;80.10
4209;DHT22;36320;48.860;2.380;2023-08-17T07:09:29;23.80;79.80
4209;DHT22;36320;48.860;2.380;2023-08-17T07:11:56;23.70;80.30
4209;DHT22;36320;48.860;2.380;2023-08-17T07:14:23;23.90;80.30
4209;DHT22;36320;48.860;2.380;2023-08-17T07:16:50;25.90;81.50
4209;DHT22;36320;48.860;2.380;2023-08-17T07:19:15;24.30;79.60
4209;DHT22;36320;48.860;2.380;2023-08-17T07:21:44;24.30;79.10
4209;DHT22;36320;48.860;2.380;2023-08-17T07:24:14;24.50;79.00
4209;DHT22;36320;48.860;2.380;2023-08-17T07:26:40;24.50;78.80
4209;DHT22;36320;48.860;2.380;2023-08-17T07:29:06;24.50;78.90
4209;DHT22;36320;48.860;2.380;2023-08-17T07:31:32;24.70;78.90
4209;DHT22;36320;48.860;2.380;2023-08-17T07:34:00;24.80;78.50
4209;DHT22;36320;48.860;2.380;2023-08-17T07:36:27;24.90;78.20
4209;DHT22;36320;48.860;2.380;2023-08-17T07:38:53;24.90;78.10
4209;DHT22;36320;48.860;2.380;2023-08-17T07:41:20;25.00;78.00
4209;DHT22;36320;48.860;2.380;2023-08-17T07:43:48;25.00;78.00
4209;DHT22;36320;48.860;2.380;2023-08-17T07:46:14;25.20;77.70
4209;DHT22;36320;48.860;2.380;2023-08-17T07:48:41;25.20;77.30
4209;DHT22;36320;48.860;2.380;2023-08-17T07:51:07;25.10;77.20
4209;DHT22;36320;48.860;2.380;2023-08-17T07:53:32;25.20;77.30
4209;DHT22;36320;48.860;2.380;2023-08-17T07:55:58;25.30;77.30
4209;DHT22;36320;48.860;2.380;2023-08-17T07:58:24;25.40;77.10
4209;DHT22;36320;48.860;2.380;2023-08-17T08:00:49;25.50;76.90
4209;DHT22;36320;48.860;2.380;2023-08-17T08:03:15;25.70;76.70
4209;DHT22;36320;48.860;2.380;2023-08-17T08:05:41;25.80;76.40
4209;DHT22;36320;48.860;2.380;2023-08-17T08:08:06;25.70;76.20
4209;DHT22;36320;48.860;2.380;2023-08-17T08:10:32;25.70;76.30
4209;DHT22;36320;48.860;2.380;2023-08-17T08:12:58;25.80;76.10
4209;DHT22;36320;48.860;2.380;2023-08-17T08:15:25;25.80;75.90
4209;DHT22;36320;48.860;2.380;2023-08-17T08:17:51;25.90;75.50
4209;DHT22;36320;48.860;2.380;2023-08-17T08:20:16;26.00;75.50
4209;DHT22;36320;48.860;2.380;2023-08-17T08:22:42;26.10;75.20
4209;DHT22;36320;48.860;2.380;2023-08-17T08:25:08;26.20;74.90
4209;DHT22;36320;48.860;2.380;2023-08-17T08:27:33;26.10;74.80
4209;DHT22;36320;48.860;2.380;2023-08-17T08:30:00;26.10;74.80
4209;DHT22;36320;48.860;2.380;2023-08-17T08:32:26;26.10;74.60
4209;DHT22;36320;48.860;2.380;2023-08-17T08:34:53;26.30;74.60
4209;DHT22;36320;48.860;2.380;2023-08-17T08:37:18;26.40;74.30
4209;DHT22;36320;48.860;2.380;2023-08-17T08:39:53;26.40;74.10
4209;DHT22;36320;48.860;2.380;2023-08-17T08:42:20;26.50;74.00
4209;DHT22;36320;48.860;2.380;2023-08-17T08:44:46;26.50;73.80
4209;DHT22;36320;48.860;2.380;2023-08-17T08:47:13;26.60;74.60
4209;DHT22;36320;48.860;2.380;2023-08-17T08:49:40;26.70;74.30
4209;DHT22;36320;48.860;2.380;2023-08-17T08:52:08;26.70;73.50
4209;DHT22;36320;48.860;2.380;2023-08-17T08:54:43;26.80;73.30
4209;DHT22;36320;48.860;2.380;2023-08-17T08:57:13;26.80;73.70
4209;DHT22;36320;48.860;2.380;2023-08-17T08:59:42;26.90;72.90
4209;DHT22;36320;48.860;2.380;2023-08-17T09:02:16;26.90;72.60
4209;DHT22;36320;48.860;2.380;2023-08-17T09:04:46;26.90;72.50
4209;DHT22;36320;48.860;2.380;2023-08-17T09:07:12;26.90;72.70
4209;DHT22;36320;48.860;2.380;2023-08-17T09:09:39;26.90;72.90
4209;DHT22;36320;48.860;2.380;2023-08-17T09:12:09;27.00;72.60
4209;DHT22;36320;48.860;2.380;2023-08-17T09:14:35;27.10;72.30
4209;DHT22;36320;48.860;2.380;2023-08-17T09:17:05;27.10;72.10
4209;DHT22;36320;48.860;2.380;2023-08-17T09:19:32;27.20;71.90
4209;DHT22;36320;48.860;2.380;2023-08-17T09:22:01;27.30;71.50
4209;DHT22;36320;48.860;2.380;2023-08-17T09:24:36;27.60;71.40
4209;DHT22;36320;48.860;2.380;2023-08-17T09:27:03;27.60;71.00
4209;DHT22;36320;48.860;2.380;2023-08-17T09:29:31;27.60;70.60
4209;DHT22;36320;48.860;2.380;2023-08-17T09:32:06;27.60;70.20
4209;DHT22;36320;48.860;2.380;2023-08-17T09:34:33;27.70;69.90
4209;DHT22;36320;48.860;2.380;2023-08-17T09:37:05;27.70;69.50
4209;DHT22;36320;48.860;2.380;2023-08-17T09:39:32;27.70;69.00
4209;DHT22;36320;48.860;2.380;2023-08-17T09:42:00;27.80;68.90
4209;DHT22;36320;48.860;2.380;2023-08-17T09:44:26;27.80;68.50
4209;DHT22;36320;48.860;2.380;2023-08-17T09:46:56;27.80;68.30
4209;DHT22;36320;48.860;2.380;2023-08-17T09:49:25;27.80;68.10
4209;DHT22;36320;48.860;2.380;2023-08-17T09:51:50;27.80;67.90
4209;DHT22;36320;48.860;2.380;2023-08-17T09:54:23;27.80;68.40
4209;DHT22;36320;48.860;2.380;2023-08-17T09:56:53;27.90;67.50
4209;DHT22;36320;48.860;2.380;2023-08-17T09:59:19;27.90;67.10
4209;DHT22;36320;48.860;2.380;2023-08-17T10:01:51;28.00;67.20
4209;DHT22;36320;48.860;2.380;2023-08-17T10:04:21;28.00;67.00
4209;DHT22;36320;48.860;2.380;2023-08-17T10:07:08;28.00;66.70
4209;DHT22;36320;48.860;2.380;2023-08-17T10:09:41;28.20;66.80
4209;DHT22;36320;48.860;2.380;2023-08-17T10:12:16;28.30;66.40
4209;DHT22;36320;48.860;2.380;2023-08-17T10:14:59;28.30;66.10
4209;DHT22;36320;48.860;2.380;2023-08-17T10:17:33;28.40;66.50
4209;DHT22;36320;48.860;2.380;2023-08-17T10:20:01;28.50;65.10
4209;DHT22;36320;48.860;2.380;2023-08-17T10:22:56;28.40;64.60
4209;DHT22;36320;48.860;2.380;2023-08-17T10:25:27;28.50;64.30
4209;DHT22;36320;48.860;2.380;2023-08-17T10:27:55;28.50;64.10
4209;DHT22;36320;48.860;2.380;2023-08-17T10:30:21;28.60;63.90
4209;DHT22;36320;48.860;2.380;2023-08-17T10:32:48;28.70;63.60
4209;DHT22;36320;48.860;2.380;2023-08-17T10:35:15;28.70;63.10
4209;DHT22;36320;48.860;2.380;2023-08-17T10:37:41;28.60;62.90
4209;DHT22;36320;48.860;2.380;2023-08-17T10:40:07;28.60;63.80
4209;DHT22;36320;48.860;2.380;2023-08-17T10:42:35;28.60;63.10
4209;DHT22;36320;48.860;2.380;2023-08-17T10:45:47;28.60;63.40
4209;DHT22;36320;48.860;2.380;2023-08-17T10:47:49;28.80;63.10
4209;DHT22;36320;48.860;2.380;2023-08-17T10:50:23;28.90;61.70
4209;DHT22;36320;48.860;2.380;2023-08-17T10:52:50;29.00;61.10
4209;DHT22;36320;48.860;2.380;2023-08-17T10:55:36;29.10;60.90
4209;DHT22;36320;48.860;2.380;2023-08-17T10:58:02;29.10;60.60
4209;DHT22;36320;48.860;2.380;2023-08-17T11:00:38;29.20;60.30
4209;DHT22;36320;48.860;2.380;2023-08-17T11:03:05;29.00;60.40
4209;DHT22;36320;48.860;2.380;2023-08-17T11:05:53;29.10;60.70
4209;DHT22;36320;48.860;2.380;2023-08-17T11:08:34;29.20;60.10
4209;DHT22;36320;48.860;2.380;2023-08-17T11:11:10;29.40;59.90
4209;DHT22;36320;48.860;2.380;2023-08-17T11:13:37;29.30;58.80
4209;DHT22;36320;48.860;2.380;2023-08-17T11:16:05;29.40;58.00
4209;DHT22;36320;48.860;2.380;2023-08-17T11:18:33;29.50;57.70
4209;DHT22;36320;48.860;2.380;2023-08-17T11:20:59;29.60;56.80
4209;DHT22;36320;48.860;2.380;2023-08-17T11:23:25;29.60;56.80
4209;DHT22;36320;48.860;2.380;2023-08-17T11:25:53;29.70;57.00
4209;DHT22;36320;48.860;2.380;2023-08-17T11:28:22;29.70;57.40
4209;DHT22;36320;48.860;2.380;2023-08-17T11:31:09;29.80;56.80
4209;DHT22;36320;48.860;2.380;2023-08-17T11:33:36;29.90;55.50
4209;DHT22;36320;48.860;2.380;2023-08-17T11:36:04;30.00;54.80
4209;DHT22;36320;48.860;2.380;2023-08-17T11:38:34;29.90;54.40
4209;DHT22;36320;48.860;2.380;2023-08-17T11:41:00;30.00;53.90
4209;DHT22;36320;48.860;2.380;2023-08-17T11:43:30;30.10;54.50
4209;DHT22;36320;48.860;2.380;2023-08-17T11:45:56;30.10;54.90
4209;DHT22;36320;48.860;2.380;2023-08-17T11:48:23;30.00;55.00
4209;DHT22;36320;48.860;2.380;2023-08-17T11:50:49;30.10;55.20
4209;DHT22;36320;48.860;2.380;2023-08-17T11:53:15;30.10;55.50
4209;DHT22;36320;48.860;2.380;2023-08-17T11:55:43;29.90;55.40
4209;DHT22;36320;48.860;2.380;2023-08-17T11:58:10;29.80;55.70
4209;DHT22;36320;48.860;2.380;2023-08-17T12:00:44;30.00;55.40
4209;DHT22;36320;48.860;2.380;2023-08-17T12:03:15;30.10;55.20
4209;DHT22;36320;48.860;2.380;2023-08-17T12:05:44;30.20;54.90
4209;DHT22;36320;48.860;2.380;2023-08-17T12:08:12;30.30;54.80
4209;DHT22;36320;48.860;2.380;2023-08-17T12:10:39;30.30;54.60
4209;DHT22;36320;48.860;2.380;2023-08-17T12:13:11;30.30;54.30
4209;DHT22;36320;48.860;2.380;2023-08-17T12:15:38;30.30;54.00
4209;DHT22;36320;48.860;2.380;2023-08-17T12:18:04;30.30;53.80
4209;DHT22;36320;48.860;2.380;2023-08-17T12:20:32;30.40;53.60
4209;DHT22;36320;48.860;2.380;2023-08-17T12:23:02;30.50;53.50
4209;DHT22;36320;48.860;2.380;2023-08-17T12:25:28;30.50;53.10
4209;DHT22;36320;48.860;2.380;2023-08-17T12:27:54;30.40;52.80
4209;DHT22;36320;48.860;2.380;2023-08-17T12:30:31;30.40;52.60
4209;DHT22;36320;48.860;2.380;2023-08-17T12:32:58;30.50;52.40
4209;DHT22;36320;48.860;2.380;2023-08-17T12:35:25;30.50;52.60
4209;DHT22;36320;48.860;2.380;2023-08-17T12:37:52;30.60;51.60
4209;DHT22;36320;48.860;2.380;2023-08-17T12:40:19;30.70;51.10
4209;DHT22;36320;48.860;2.380;2023-08-17T12:42:45;30.70;50.60
4209;DHT22;36320;48.860;2.380;2023-08-17T12:45:10;30.80;50.80
4209;DHT22;36320;48.860;2.380;2023-08-17T12:47:37;30.70;50.30
4209;DHT22;36320;48.860;2.380;2023-08-17T12:50:04;30.70;50.50
4209;DHT22;36320;48.860;2.380;2023-08-17T12:52:31;30.80;50.30
4209;DHT22;36320;48.860;2.380;2023-08-17T12:54:58;30.90;50.30
4209;DHT22;36320;48.860;2.380;2023-08-17T12:57:24;30.90;50.10
4209;DHT22;36320;48.860;2.380;2023-08-17T12:59:51;30.90;49.90
4209;DHT22;36320;48.860;2.380;2023-08-17T13:02:16;31.00;49.80
4209;DHT22;36320;48.860;2.380;2023-08-17T13:04:42;31.00;49.70
4209;DHT22;36320;48.860;2.380;2023-08-17T13:07:08;31.00;49.70
4209;DHT22;36320;48.860;2.380;2023-08-17T13:09:33;31.00;49.70
4209;DHT22;36320;48.860;2.380;2023-08-17T13:11:59;31.00;49.80
4209;DHT22;36320;48.860;2.380;2023-08-17T13:14:25;30.90;49.70
4209;DHT22;36320;48.860;2.380;2023-08-17T13:16:51;30.90;49.60
4209;DHT22;36320;48.860;2.380;2023-08-17T13:19:18;30.90;49.50
4209;DHT22;36320;48.860;2.380;2023-08-17T13:21:43;30.90;49.50
4209;DHT22;36320;48.860;2.380;2023-08-17T13:24:09;30.90;49.50
4209;DHT22;36320;48.860;2.380;2023-08-17T13:26:35;30.90;49.20
4209;DHT22;36320;48.860;2.380;2023-08-17T13:29:01;31.00;48.90
4209;DHT22;36320;48.860;2.380;2023-08-17T13:31:27;31.10;49.10
4209;DHT22;36320;48.860;2.380;2023-08-17T13:33:52;31.10;49.40
4209;DHT22;36320;48.860;2.380;2023-08-17T13:36:18;31.10;49.50
4209;DHT22;36320;48.860;2.380;2023-08-17T13:38:44;31.10;49.60
4209;DHT22;36320;48.860;2.380;2023-08-17T13:41:11;31.20;49.80
4209;DHT22;36320;48.860;2.380;2023-08-17T13:43:37;31.10;50.10
4209;DHT22;36320;48.860;2.380;2023-08-17T13:46:04;31.20;50.30
4209;DHT22;36320;48.860;2.380;2023-08-17T13:48:29;31.20;50.50
4209;DHT22;36320;48.860;2.380;2023-08-17T13:50:55;31.20;50.60
4209;DHT22;36320;48.860;2.380;2023-08-17T13:53:21;31.20;50.80
4209;DHT22;36320;48.860;2.380;2023-08-17T13:55:46;31.30;51.00
4209;DHT22;36320;48.860;2.380;2023-08-17T13:58:12;31.20;51.00
4209;DHT22;36320;48.860;2.380;2023-08-17T14:00:38;31.20;51.20
4209;DHT22;36320;48.860;2.380;2023-08-17T14:03:04;31.30;51.30
4209;DHT22;36320;48.860;2.380;2023-08-17T14:05:30;31.30;51.20
4209;DHT22;36320;48.860;2.380;2023-08-17T14:07:55;31.40;51.30
4209;DHT22;36320;48.860;2.380;2023-08-17T14:10:21;31.40;51.40
4209;DHT22;36320;48.860;2.380;2023-08-17T14:12:47;31.20;51.60
4209;DHT22;36320;48.860;2.380;2023-08-17T14:15:13;31.20;51.60
4209;DHT22;36320;48.860;2.380;2023-08-17T14:17:39;31.30;51.70
4209;DHT22;36320;48.860;2.380;2023-08-17T14:20:06;31.30;51.60
4209;DHT22;36320;48.860;2.380;2023-08-17T14:22:32;31.20;51.60
4209;DHT22;36320;48.860;2.380;2023-08-17T14:24:59;31.30;51.90
4209;DHT22;36320;48.860;2.380;2023-08-17T14:27:26;31.20;51.90
4209;DHT22;36320;48.860;2.380;2023-08-17T14:29:51;31.20;52.00
4209;DHT22;36320;48.860;2.380;2023-08-17T14:32:17;31.20;52.10
4209;DHT22;36320;48.860;2.380;2023-08-17T14:34:43;31.30;52.30
4209;DHT22;36320;48.860;2.380;2023-08-17T14:37:08;31.30;52.40
4209;DHT22;36320;48.860;2.380;2023-08-17T14:39:34;31.40;52.40
4209;DHT22;36320;48.860;2.380;2023-08-17T14:42:01;31.30;52.40
4209;DHT22;36320;48.860;2.380;2023-08-17T14:44:26;31.20;52.30
4209;DHT22;36320;48.860;2.380;2023-08-17T14:46:52;31.00;52.60
4209;DHT22;36320;48.860;2.380;2023-08-17T14:49:18;31.10;52.80
4209;DHT22;36320;48.860;2.380;2023-08-17T14:51:43;31.10;52.60
4209;DHT22;36320;48.860;2.380;2023-08-17T14:54:09;31.30;52.70
4209;DHT22;36320;48.860;2.380;2023-08-17T14:56:36;31.50;52.50
4209;DHT22;36320;48.860;2.380;2023-08-17T14:59:01;31.50;52.30
4209;DHT22;36320;48.860;2.380;2023-08-17T15:01:28;31.40;52.30
4209;DHT22;36320;48.860;2.380;2023-08-17T15:03:54;31.20;52.40
4209;DHT22;36320;48.860;2.380;2023-08-17T15:06:20;31.40;52.40
4209;DHT22;36320;48.860;2.380;2023-08-17T15:08:50;31.50;52.30
4209;DHT22;36320;48.860;2.380;2023-08-17T15:11:15;31.50;52.10
4209;DHT22;36320;48.860;2.380;2023-08-17T15:13:41;31.50;52.30
4209;DHT22;36320;48.860;2.380;2023-08-17T15:16:08;31.60;52.20
4209;DHT22;36320;48.860;2.380;2023-08-17T15:18:35;32.00;51.90
4209;DHT22;36320;48.860;2.380;2023-08-17T15:21:02;32.10;52.10
4209;DHT22;36320;48.860;2.380;2023-08-17T15:23:29;32.30;51.10
4209;DHT22;36320;48.860;2.380;2023-08-17T15:25:55;32.20;51.00
4209;DHT22;36320;48.860;2.380;2023-08-17T15:28:20;32.20;51.10
4209;DHT22;36320;48.860;2.380;2023-08-17T15:30:49;32.30;52.10
4209;DHT22;36320;48.860;2.380;2023-08-17T15:33:25;32.50;51.60
4209;DHT22;36320;48.860;2.380;2023-08-17T15:35:53;32.50;50.50
4209;DHT22;36320;48.860;2.380;2023-08-17T15:38:23;32.30;50.60
4209;DHT22;36320;48.860;2.380;2023-08-17T15:40:48;32.30;50.40
4209;DHT22;36320;48.860;2.380;2023-08-17T15:43:14;35.70;48.30
4209;DHT22;36320;48.860;2.380;2023-08-17T15:45:39;40.10;43.20
4209;DHT22;36320;48.860;2.380;2023-08-17T15:48:06;43.90;38.40